South Hanover, Pennsylvania
Current Conditions -  °F | °C
As of 9:34 AM on Tuesday 21 Oct 2014 (Local Time) from KMDT Reporting Station
Haze Haze  
Wind Chill: 52°   Ceiling: 8500
Heat Index: 52°   Visibility: 1.7mi
Dew Point: 51°   Wind: 3mph
Humidity: 97%   Direction: 120°ESE
Pressure: 29.87"   Gusts: NA
Location:  40.2988°N, 76.709°W
Report Text: KMDT 211334Z 12003KT 1 3/4SM BR SCT002 OVC085 11/11 A2987 RMK AO2 T01110106
Loading
Personal Weather Stations






























Interactive Weather Map
Tropical Storm Tracking
New forecast layout! Learn more

10-Day Weather Forecast

Advertisements
Track Severe Weather on mobile